sensor_id;sensor_type;location;lat;lon;timestamp;P1;durP1;ratioP1;P2;durP2;ratioP2
84662;SDS011;74891;59.208;18.220;2024-02-15T12:48:42;23.17;;;6.10;;
84662;SDS011;74891;59.208;18.220;2024-02-15T12:51:41;23.52;;;6.65;;
84662;SDS011;74891;59.208;18.220;2024-02-15T12:54:14;32.45;;;8.30;;
84662;SDS011;74891;59.208;18.220;2024-02-15T12:56:48;32.53;;;7.28;;
84662;SDS011;74891;59.208;18.220;2024-02-15T12:59:14;21.88;;;5.85;;
84662;SDS011;74891;59.208;18.220;2024-02-15T13:02:17;42.33;;;7.50;;
84662;SDS011;74891;59.208;18.220;2024-02-15T13:04:46;38.38;;;6.68;;
84662;SDS011;74891;59.208;18.220;2024-02-15T13:07:12;37.28;;;7.65;;
84662;SDS011;74891;59.208;18.220;2024-02-15T13:09:40;30.67;;;6.85;;
84662;SDS011;74891;59.208;18.220;2024-02-15T13:12:08;15.88;;;5.03;;
84662;SDS011;74891;59.208;18.220;2024-02-15T13:14:37;21.67;;;6.72;;
84662;SDS011;74891;59.208;18.220;2024-02-15T13:17:02;63.20;;;10.70;;
84662;SDS011;74891;59.208;18.220;2024-02-15T13:19:30;45.40;;;8.85;;
84662;SDS011;74891;59.208;18.220;2024-02-15T13:25:00;15.68;;;4.63;;
84662;SDS011;74891;59.208;18.220;2024-02-15T13:27:30;23.65;;;6.55;;
84662;SDS011;74891;59.208;18.220;2024-02-15T13:30:14;61.22;;;8.65;;
84662;SDS011;74891;59.208;18.220;2024-02-15T13:32:39;23.65;;;5.57;;
84662;SDS011;74891;59.208;18.220;2024-02-15T13:35:08;33.42;;;6.80;;
84662;SDS011;74891;59.208;18.220;2024-02-15T13:40:28;12.30;;;5.32;;
84662;SDS011;74891;59.208;18.220;2024-02-15T13:46:04;20.35;;;4.95;;
84662;SDS011;74891;59.208;18.220;2024-02-15T13:48:39;19.50;;;5.20;;
84662;SDS011;74891;59.208;18.220;2024-02-15T13:51:04;20.20;;;5.78;;
84662;SDS011;74891;59.208;18.220;2024-02-15T13:53:34;27.35;;;5.20;;
84662;SDS011;74891;59.208;18.220;2024-02-15T13:56:08;27.30;;;5.70;;
84662;SDS011;74891;59.208;18.220;2024-02-15T13:58:37;32.80;;;6.57;;
84662;SDS011;74891;59.208;18.220;2024-02-15T14:06:24;44.35;;;6.85;;
84662;SDS011;74891;59.208;18.220;2024-02-15T14:08:55;24.40;;;5.70;;
84662;SDS011;74891;59.208;18.220;2024-02-15T14:11:27;22.90;;;5.03;;
84662;SDS011;74891;59.208;18.220;2024-02-15T14:14:18;51.53;;;8.38;;
84662;SDS011;74891;59.208;18.220;2024-02-15T14:19:45;36.35;;;5.85;;
84662;SDS011;74891;59.208;18.220;2024-02-15T14:22:13;32.10;;;5.38;;
84662;SDS011;74891;59.208;18.220;2024-02-15T14:24:43;50.13;;;7.93;;
84662;SDS011;74891;59.208;18.220;2024-02-15T14:27:11;35.83;;;7.28;;
84662;SDS011;74891;59.208;18.220;2024-02-15T14:29:47;28.27;;;5.65;;
84662;SDS011;74891;59.208;18.220;2024-02-15T14:32:31;67.40;;;12.55;;
84662;SDS011;74891;59.208;18.220;2024-02-15T14:35:25;53.47;;;8.27;;
84662;SDS011;74891;59.208;18.220;2024-02-15T14:37:57;50.47;;;8.73;;
84662;SDS011;74891;59.208;18.220;2024-02-15T14:40:37;43.95;;;7.43;;
84662;SDS011;74891;59.208;18.220;2024-02-15T14:43:06;36.53;;;6.13;;
84662;SDS011;74891;59.208;18.220;2024-02-15T14:45:42;24.23;;;7.55;;
84662;SDS011;74891;59.208;18.220;2024-02-15T14:48:34;55.92;;;9.35;;
84662;SDS011;74891;59.208;18.220;2024-02-15T14:51:22;32.80;;;6.15;;
84662;SDS011;74891;59.208;18.220;2024-02-15T14:53:50;81.05;;;10.57;;
84662;SDS011;74891;59.208;18.220;2024-02-15T14:56:21;43.20;;;7.38;;
84662;SDS011;74891;59.208;18.220;2024-02-15T14:58:52;80.63;;;11.98;;
84662;SDS011;74891;59.208;18.220;2024-02-15T15:01:32;44.42;;;5.63;;
84662;SDS011;74891;59.208;18.220;2024-02-15T15:04:02;80.28;;;10.00;;
84662;SDS011;74891;59.208;18.220;2024-02-15T15:06:33;32.72;;;5.78;;
84662;SDS011;74891;59.208;18.220;2024-02-15T15:09:23;77.07;;;6.40;;
84662;SDS011;74891;59.208;18.220;2024-02-15T15:12:14;55.25;;;7.63;;
84662;SDS011;74891;59.208;18.220;2024-02-15T15:15:20;74.55;;;8.35;;
84662;SDS011;74891;59.208;18.220;2024-02-15T15:17:51;31.88;;;6.38;;
84662;SDS011;74891;59.208;18.220;2024-02-15T15:20:16;64.17;;;8.13;;
84662;SDS011;74891;59.208;18.220;2024-02-15T15:22:53;120.43;;;12.88;;
84662;SDS011;74891;59.208;18.220;2024-02-15T15:25:26;97.97;;;12.43;;
84662;SDS011;74891;59.208;18.220;2024-02-15T15:27:58;30.23;;;5.95;;
84662;SDS011;74891;59.208;18.220;2024-02-15T15:31:05;33.35;;;6.57;;
84662;SDS011;74891;59.208;18.220;2024-02-15T15:33:17;52.58;;;6.65;;
84662;SDS011;74891;59.208;18.220;2024-02-15T15:35:50;44.05;;;8.27;;
84662;SDS011;74891;59.208;18.220;2024-02-15T15:38:18;61.72;;;9.48;;
84662;SDS011;74891;59.208;18.220;2024-02-15T15:40:51;48.10;;;7.90;;
84662;SDS011;74891;59.208;18.220;2024-02-15T15:43:40;55.15;;;8.95;;
84662;SDS011;74891;59.208;18.220;2024-02-15T15:46:14;128.98;;;11.05;;
84662;SDS011;74891;59.208;18.220;2024-02-15T15:48:39;29.02;;;7.47;;
84662;SDS011;74891;59.208;18.220;2024-02-15T15:51:07;67.45;;;9.60;;
84662;SDS011;74891;59.208;18.220;2024-02-15T15:53:34;99.75;;;10.63;;
84662;SDS011;74891;59.208;18.220;2024-02-15T15:56:04;44.78;;;9.00;;
84662;SDS011;74891;59.208;18.220;2024-02-15T16:01:56;76.30;;;9.65;;
84662;SDS011;74891;59.208;18.220;2024-02-15T16:07:11;45.45;;;7.82;;
84662;SDS011;74891;59.208;18.220;2024-02-15T16:10:17;34.95;;;8.43;;
84662;SDS011;74891;59.208;18.220;2024-02-15T16:13:01;67.00;;;10.52;;
84662;SDS011;74891;59.208;18.220;2024-02-15T16:15:58;40.17;;;7.15;;
84662;SDS011;74891;59.208;18.220;2024-02-15T16:18:41;18.83;;;6.05;;
84662;SDS011;74891;59.208;18.220;2024-02-15T16:21:12;121.45;;;12.52;;
84662;SDS011;74891;59.208;18.220;2024-02-15T16:23:41;95.22;;;12.02;;
84662;SDS011;74891;59.208;18.220;2024-02-15T16:26:16;25.13;;;6.10;;
84662;SDS011;74891;59.208;18.220;2024-02-15T16:28:49;100.10;;;12.80;;
84662;SDS011;74891;59.208;18.220;2024-02-15T16:31:17;103.43;;;12.52;;
84662;SDS011;74891;59.208;18.220;2024-02-15T16:33:43;95.38;;;15.38;;
84662;SDS011;74891;59.208;18.220;2024-02-15T16:36:08;142.38;;;17.10;;
84662;SDS011;74891;59.208;18.220;2024-02-15T16:38:34;75.15;;;13.75;;
84662;SDS011;74891;59.208;18.220;2024-02-15T16:41:04;167.60;;;29.15;;
84662;SDS011;74891;59.208;18.220;2024-02-15T16:43:33;93.07;;;16.90;;
84662;SDS011;74891;59.208;18.220;2024-02-15T16:46:06;110.75;;;13.13;;
84662;SDS011;74891;59.208;18.220;2024-02-15T16:48:46;55.58;;;11.02;;
84662;SDS011;74891;59.208;18.220;2024-02-15T16:51:15;116.70;;;15.35;;
84662;SDS011;74891;59.208;18.220;2024-02-15T16:53:46;79.43;;;11.45;;
84662;SDS011;74891;59.208;18.220;2024-02-15T16:56:15;68.90;;;10.85;;
84662;SDS011;74891;59.208;18.220;2024-02-15T16:58:45;88.97;;;12.50;;
84662;SDS011;74891;59.208;18.220;2024-02-15T17:01:11;63.00;;;12.35;;
84662;SDS011;74891;59.208;18.220;2024-02-15T17:03:36;86.45;;;12.18;;
84662;SDS011;74891;59.208;18.220;2024-02-15T17:06:02;82.13;;;12.80;;
84662;SDS011;74891;59.208;18.220;2024-02-15T17:08:41;100.80;;;11.95;;
84662;SDS011;74891;59.208;18.220;2024-02-15T17:11:25;109.38;;;14.23;;
84662;SDS011;74891;59.208;18.220;2024-02-15T17:13:51;95.75;;;12.63;;
84662;SDS011;74891;59.208;18.220;2024-02-15T17:16:33;72.50;;;10.95;;
84662;SDS011;74891;59.208;18.220;2024-02-15T17:19:18;67.65;;;8.85;;
84662;SDS011;74891;59.208;18.220;2024-02-15T17:21:44;62.45;;;9.70;;
84662;SDS011;74891;59.208;18.220;2024-02-15T17:24:10;142.27;;;16.55;;
84662;SDS011;74891;59.208;18.220;2024-02-15T17:26:36;54.58;;;9.55;;
84662;SDS011;74891;59.208;18.220;2024-02-15T17:29:12;60.90;;;10.05;;
84662;SDS011;74891;59.208;18.220;2024-02-15T17:31:38;59.05;;;8.25;;
84662;SDS011;74891;59.208;18.220;2024-02-15T17:36:48;62.90;;;10.90;;
84662;SDS011;74891;59.208;18.220;2024-02-15T17:39:13;105.80;;;14.18;;
84662;SDS011;74891;59.208;18.220;2024-02-15T17:41:39;62.38;;;9.60;;
84662;SDS011;74891;59.208;18.220;2024-02-15T17:44:06;130.85;;;16.27;;
84662;SDS011;74891;59.208;18.220;2024-02-15T17:46:35;88.93;;;13.27;;
84662;SDS011;74891;59.208;18.220;2024-02-15T17:49:04;141.82;;;16.08;;
84662;SDS011;74891;59.208;18.220;2024-02-15T17:51:45;61.80;;;10.02;;
84662;SDS011;74891;59.208;18.220;2024-02-15T17:54:35;69.63;;;10.80;;
84662;SDS011;74891;59.208;18.220;2024-02-15T17:57:11;131.05;;;17.42;;
84662;SDS011;74891;59.208;18.220;2024-02-15T18:02:52;57.53;;;10.00;;
84662;SDS011;74891;59.208;18.220;2024-02-15T18:05:30;62.30;;;11.20;;
84662;SDS011;74891;59.208;18.220;2024-02-15T18:08:09;49.75;;;8.05;;
84662;SDS011;74891;59.208;18.220;2024-02-15T18:13:37;71.25;;;10.60;;
84662;SDS011;74891;59.208;18.220;2024-02-15T18:16:08;114.82;;;12.60;;
84662;SDS011;74891;59.208;18.220;2024-02-15T18:18:37;86.63;;;11.00;;
84662;SDS011;74891;59.208;18.220;2024-02-15T18:21:17;138.60;;;17.20;;
84662;SDS011;74891;59.208;18.220;2024-02-15T18:23:50;123.75;;;14.20;;
84662;SDS011;74891;59.208;18.220;2024-02-15T18:26:21;140.70;;;14.50;;
84662;SDS011;74891;59.208;18.220;2024-02-15T18:28:49;91.13;;;14.27;;
84662;SDS011;74891;59.208;18.220;2024-02-15T18:31:14;102.05;;;13.52;;
84662;SDS011;74891;59.208;18.220;2024-02-15T18:33:45;89.05;;;11.63;;
84662;SDS011;74891;59.208;18.220;2024-02-15T18:38:51;118.90;;;14.18;;
84662;SDS011;74891;59.208;18.220;2024-02-15T18:41:44;115.78;;;15.40;;
84662;SDS011;74891;59.208;18.220;2024-02-15T18:44:17;109.32;;;12.15;;
84662;SDS011;74891;59.208;18.220;2024-02-15T18:46:56;141.57;;;16.08;;
84662;SDS011;74891;59.208;18.220;2024-02-15T18:49:25;79.63;;;13.75;;
84662;SDS011;74891;59.208;18.220;2024-02-15T18:51:55;125.18;;;16.42;;
84662;SDS011;74891;59.208;18.220;2024-02-15T18:54:31;172.70;;;25.98;;
84662;SDS011;74891;59.208;18.220;2024-02-15T18:57:05;115.47;;;17.67;;
84662;SDS011;74891;59.208;18.220;2024-02-15T19:00:05;91.75;;;18.08;;
84662;SDS011;74891;59.208;18.220;2024-02-15T19:02:37;95.45;;;17.10;;
84662;SDS011;74891;59.208;18.220;2024-02-15T19:05:03;124.13;;;15.45;;
84662;SDS011;74891;59.208;18.220;2024-02-15T19:08:07;86.78;;;15.65;;
84662;SDS011;74891;59.208;18.220;2024-02-15T19:10:50;72.32;;;13.02;;
84662;SDS011;74891;59.208;18.220;2024-02-15T19:13:20;124.82;;;15.70;;
84662;SDS011;74891;59.208;18.220;2024-02-15T19:15:46;122.47;;;13.90;;
84662;SDS011;74891;59.208;18.220;2024-02-15T19:18:19;79.47;;;13.95;;
84662;SDS011;74891;59.208;18.220;2024-02-15T19:20:54;88.43;;;15.63;;
84662;SDS011;74891;59.208;18.220;2024-02-15T19:26:25;110.97;;;15.15;;
84662;SDS011;74891;59.208;18.220;2024-02-15T19:29:06;100.97;;;14.65;;
84662;SDS011;74891;59.208;18.220;2024-02-15T19:34:35;91.70;;;12.85;;
84662;SDS011;74891;59.208;18.220;2024-02-15T19:37:19;128.20;;;15.55;;
84662;SDS011;74891;59.208;18.220;2024-02-15T19:42:41;80.40;;;15.45;;
84662;SDS011;74891;59.208;18.220;2024-02-15T19:45:17;95.95;;;15.80;;
84662;SDS011;74891;59.208;18.220;2024-02-15T19:47:50;59.40;;;13.15;;
84662;SDS011;74891;59.208;18.220;2024-02-15T19:50:22;49.08;;;11.82;;
84662;SDS011;74891;59.208;18.220;2024-02-15T19:52:54;49.45;;;10.70;;
84662;SDS011;74891;59.208;18.220;2024-02-15T19:55:31;104.57;;;13.85;;
84662;SDS011;74891;59.208;18.220;2024-02-15T19:58:05;108.68;;;16.27;;
84662;SDS011;74891;59.208;18.220;2024-02-15T20:00:33;100.53;;;17.20;;
84662;SDS011;74891;59.208;18.220;2024-02-15T20:02:59;95.97;;;13.32;;
84662;SDS011;74891;59.208;18.220;2024-02-15T20:05:34;122.03;;;18.00;;
84662;SDS011;74891;59.208;18.220;2024-02-15T20:08:03;115.75;;;14.20;;
84662;SDS011;74891;59.208;18.220;2024-02-15T20:10:32;157.43;;;22.58;;
84662;SDS011;74891;59.208;18.220;2024-02-15T20:16:05;110.78;;;23.30;;
84662;SDS011;74891;59.208;18.220;2024-02-15T20:19:21;97.10;;;18.60;;
84662;SDS011;74891;59.208;18.220;2024-02-15T20:22:06;76.38;;;14.60;;
84662;SDS011;74891;59.208;18.220;2024-02-15T20:24:35;93.75;;;15.20;;
84662;SDS011;74891;59.208;18.220;2024-02-15T20:27:03;134.48;;;18.45;;
84662;SDS011;74891;59.208;18.220;2024-02-15T20:29:40;80.53;;;13.50;;
84662;SDS011;74891;59.208;18.220;2024-02-15T20:32:08;84.18;;;12.30;;
84662;SDS011;74891;59.208;18.220;2024-02-15T20:34:40;151.00;;;18.02;;
84662;SDS011;74891;59.208;18.220;2024-02-15T20:37:10;100.28;;;15.48;;
84662;SDS011;74891;59.208;18.220;2024-02-15T20:39:42;145.45;;;17.15;;
84662;SDS011;74891;59.208;18.220;2024-02-15T20:42:09;89.43;;;12.43;;
84662;SDS011;74891;59.208;18.220;2024-02-15T20:44:38;174.15;;;19.95;;
84662;SDS011;74891;59.208;18.220;2024-02-15T20:50:22;158.80;;;17.38;;
84662;SDS011;74891;59.208;18.220;2024-02-15T20:52:50;95.07;;;13.15;;
84662;SDS011;74891;59.208;18.220;2024-02-15T20:55:49;90.18;;;14.23;;
84662;SDS011;74891;59.208;18.220;2024-02-15T20:58:22;49.97;;;9.80;;
84662;SDS011;74891;59.208;18.220;2024-02-15T21:00:48;66.82;;;11.68;;
84662;SDS011;74891;59.208;18.220;2024-02-15T21:03:19;72.47;;;12.63;;
84662;SDS011;74891;59.208;18.220;2024-02-15T21:05:44;73.97;;;12.70;;
84662;SDS011;74891;59.208;18.220;2024-02-15T21:08:12;134.13;;;17.83;;
84662;SDS011;74891;59.208;18.220;2024-02-15T21:10:52;86.78;;;13.63;;
84662;SDS011;74891;59.208;18.220;2024-02-15T21:13:33;115.80;;;14.75;;
84662;SDS011;74891;59.208;18.220;2024-02-15T21:16:09;129.38;;;15.32;;
84662;SDS011;74891;59.208;18.220;2024-02-15T21:18:41;146.98;;;16.75;;
84662;SDS011;74891;59.208;18.220;2024-02-15T21:21:13;187.68;;;17.40;;
84662;SDS011;74891;59.208;18.220;2024-02-15T21:23:42;65.38;;;11.40;;
84662;SDS011;74891;59.208;18.220;2024-02-15T21:26:08;45.95;;;10.95;;
84662;SDS011;74891;59.208;18.220;2024-02-15T21:28:38;186.57;;;20.55;;
84662;SDS011;74891;59.208;18.220;2024-02-15T21:31:08;82.22;;;12.38;;
84662;SDS011;74891;59.208;18.220;2024-02-15T21:33:42;105.10;;;15.60;;
84662;SDS011;74891;59.208;18.220;2024-02-15T21:36:28;149.65;;;15.93;;
84662;SDS011;74891;59.208;18.220;2024-02-15T21:39:38;74.65;;;12.82;;
84662;SDS011;74891;59.208;18.220;2024-02-15T21:42:14;156.05;;;17.27;;
84662;SDS011;74891;59.208;18.220;2024-02-15T21:44:48;162.73;;;16.77;;
84662;SDS011;74891;59.208;18.220;2024-02-15T21:47:17;107.18;;;15.77;;
84662;SDS011;74891;59.208;18.220;2024-02-15T21:49:57;65.32;;;12.27;;
84662;SDS011;74891;59.208;18.220;2024-02-15T21:52:29;131.77;;;16.02;;
84662;SDS011;74891;59.208;18.220;2024-02-15T21:54:58;177.38;;;19.13;;
84662;SDS011;74891;59.208;18.220;2024-02-15T21:57:23;122.70;;;17.33;;
84662;SDS011;74891;59.208;18.220;2024-02-15T21:59:49;134.65;;;15.73;;
84662;SDS011;74891;59.208;18.220;2024-02-15T22:02:17;101.70;;;13.77;;
84662;SDS011;74891;59.208;18.220;2024-02-15T22:04:53;119.00;;;14.05;;
84662;SDS011;74891;59.208;18.220;2024-02-15T22:07:21;167.00;;;19.52;;
84662;SDS011;74891;59.208;18.220;2024-02-15T22:09:50;173.75;;;20.83;;
84662;SDS011;74891;59.208;18.220;2024-02-15T22:12:25;110.97;;;15.48;;
84662;SDS011;74891;59.208;18.220;2024-02-15T22:14:51;116.88;;;15.43;;
84662;SDS011;74891;59.208;18.220;2024-02-15T22:17:17;161.75;;;16.63;;
84662;SDS011;74891;59.208;18.220;2024-02-15T22:19:59;84.18;;;13.52;;
84662;SDS011;74891;59.208;18.220;2024-02-15T22:22:32;110.78;;;13.63;;
84662;SDS011;74891;59.208;18.220;2024-02-15T22:25:08;66.97;;;10.80;;
84662;SDS011;74891;59.208;18.220;2024-02-15T22:27:35;85.20;;;13.30;;
84662;SDS011;74891;59.208;18.220;2024-02-15T22:30:04;107.70;;;13.63;;
84662;SDS011;74891;59.208;18.220;2024-02-15T22:35:31;104.35;;;13.07;;
84662;SDS011;74891;59.208;18.220;2024-02-15T22:40:35;111.18;;;16.10;;
84662;SDS011;74891;59.208;18.220;2024-02-15T22:43:06;95.03;;;14.15;;
84662;SDS011;74891;59.208;18.220;2024-02-15T22:45:34;179.27;;;20.58;;
84662;SDS011;74891;59.208;18.220;2024-02-15T22:48:13;113.22;;;17.30;;
84662;SDS011;74891;59.208;18.220;2024-02-15T22:50:48;191.40;;;21.35;;
84662;SDS011;74891;59.208;18.220;2024-02-15T22:55:48;45.38;;;9.95;;
84662;SDS011;74891;59.208;18.220;2024-02-15T22:58:13;93.70;;;13.70;;
84662;SDS011;74891;59.208;18.220;2024-02-15T23:00:42;142.07;;;15.82;;
84662;SDS011;74891;59.208;18.220;2024-02-15T23:03:08;120.72;;;13.27;;
84662;SDS011;74891;59.208;18.220;2024-02-15T23:08:20;73.05;;;10.32;;
84662;SDS011;74891;59.208;18.220;2024-02-15T23:13:42;97.80;;;12.63;;
84662;SDS011;74891;59.208;18.220;2024-02-15T23:16:11;110.70;;;15.55;;
84662;SDS011;74891;59.208;18.220;2024-02-15T23:21:38;117.35;;;14.27;;
84662;SDS011;74891;59.208;18.220;2024-02-15T23:27:22;107.25;;;12.38;;
84662;SDS011;74891;59.208;18.220;2024-02-15T23:29:50;103.80;;;12.63;;
84662;SDS011;74891;59.208;18.220;2024-02-15T23:35:13;88.20;;;12.02;;
84662;SDS011;74891;59.208;18.220;2024-02-15T23:37:42;93.53;;;12.98;;
84662;SDS011;74891;59.208;18.220;2024-02-15T23:40:46;96.30;;;12.05;;
84662;SDS011;74891;59.208;18.220;2024-02-15T23:43:16;100.70;;;12.57;;
84662;SDS011;74891;59.208;18.220;2024-02-15T23:45:47;83.80;;;12.15;;
84662;SDS011;74891;59.208;18.220;2024-02-15T23:48:12;74.20;;;10.90;;
84662;SDS011;74891;59.208;18.220;2024-02-15T23:50:52;84.38;;;11.07;;
84662;SDS011;74891;59.208;18.220;2024-02-15T23:53:21;72.57;;;10.82;;
84662;SDS011;74891;59.208;18.220;2024-02-15T23:55:58;95.38;;;11.07;;
